createdAt,value
2022-11-17T00:00:06.931Z,40.24
2022-11-17T00:00:42.689Z,44.26
2022-11-17T00:01:20.251Z,45.94
2022-11-17T00:01:53.427Z,46.34
2022-11-17T00:02:26.841Z,41.24
2022-11-17T00:03:00.189Z,40.20
2022-11-17T00:03:33.641Z,44.24
2022-11-17T00:04:07.261Z,41.42
2022-11-17T00:04:40.541Z,41.70
2022-11-17T00:05:14.234Z,47.80
2022-11-17T00:05:47.614Z,52.40
2022-11-17T00:06:21.405Z,39.66
2022-11-17T00:06:54.613Z,47.84
2022-11-17T00:07:28.003Z,37.80
2022-11-17T00:08:01.554Z,41.02
2022-11-17T00:08:34.633Z,42.12
2022-11-17T00:09:11.698Z,39.88
2022-11-17T00:09:45.088Z,42.28
2022-11-17T00:10:18.569Z,41.84
2022-11-17T00:10:51.847Z,41.92
2022-11-17T00:11:25.132Z,46.26
2022-11-17T00:12:22.056Z,44.76
2022-11-17T00:13:14.082Z,40.82
2022-11-17T00:14:06.098Z,41.18
2022-11-17T00:14:41.020Z,43.68
2022-11-17T00:15:14.400Z,39.00
2022-11-17T00:15:47.685Z,45.82
2022-11-17T00:16:21.575Z,37.88
2022-11-17T00:16:54.752Z,40.68
2022-11-17T00:17:28.547Z,40.72
2022-11-17T00:18:39.921Z,41.40
2022-11-17T00:19:31.530Z,44.24
2022-11-17T00:20:23.243Z,42.00
2022-11-17T00:21:14.859Z,47.64
2022-11-17T00:21:47.930Z,46.78
2022-11-17T00:22:21.108Z,41.12
2022-11-17T00:22:54.384Z,43.12
2022-11-17T00:23:47.670Z,44.08
2022-11-17T00:24:21.321Z,40.08
2022-11-17T00:24:54.402Z,43.58
2022-11-17T00:25:27.476Z,36.02
2022-11-17T00:26:00.757Z,36.52
2022-11-17T00:26:35.264Z,38.56
2022-11-17T00:27:08.851Z,38.14
2022-11-17T00:27:41.829Z,41.26
2022-11-17T00:28:15.307Z,45.58
2022-11-17T00:28:48.695Z,43.80
2022-11-17T00:29:21.972Z,41.28
2022-11-17T00:29:55.353Z,40.80
2022-11-17T00:30:47.154Z,38.44
2022-11-17T00:31:38.985Z,36.52
2022-11-17T00:32:31.717Z,35.80
2022-11-17T00:33:23.541Z,48.78
2022-11-17T00:34:05.965Z,38.90
2022-11-17T00:34:39.514Z,44.26
2022-11-17T00:35:12.593Z,41.08
2022-11-17T00:35:50.068Z,45.24
2022-11-17T00:36:25.506Z,41.50
2022-11-17T00:36:58.781Z,43.58
2022-11-17T00:37:34.927Z,34.58
2022-11-17T00:38:16.915Z,37.82
2022-11-17T00:38:49.991Z,44.30
2022-11-17T00:39:23.790Z,40.52
2022-11-17T00:40:00.779Z,38.96
2022-11-17T00:40:34.437Z,39.04
2022-11-17T00:41:07.617Z,42.04
2022-11-17T00:41:40.793Z,42.38
2022-11-17T00:42:14.070Z,43.40
2022-11-17T00:42:47.252Z,41.32
2022-11-17T00:43:20.529Z,40.88
2022-11-17T00:43:53.708Z,41.04
2022-11-17T00:44:27.087Z,39.26
2022-11-17T00:45:00.167Z,47.60
2022-11-17T00:45:33.648Z,44.20
2022-11-17T00:46:06.729Z,40.88
2022-11-17T00:46:40.107Z,41.04
2022-11-17T00:47:13.284Z,42.26
2022-11-17T00:47:46.569Z,46.60
2022-11-17T00:48:19.844Z,57.98
2022-11-17T00:48:53.127Z,47.14
2022-11-17T00:49:26.405Z,46.12
2022-11-17T00:49:59.684Z,49.32
2022-11-17T00:50:32.884Z,45.54
2022-11-17T00:51:06.348Z,72.86
2022-11-17T00:51:39.730Z,63.94
2022-11-17T00:52:12.709Z,70.88
2022-11-17T00:52:46.089Z,50.56
2022-11-17T00:53:19.266Z,73.24
2022-11-17T00:53:52.680Z,60.58
2022-11-17T00:54:26.340Z,72.92
2022-11-17T00:54:59.654Z,60.04
2022-11-17T00:55:32.887Z,61.68
2022-11-17T00:56:06.179Z,57.36
2022-11-17T00:56:39.255Z,69.46
2022-11-17T00:57:12.433Z,341.20
2022-11-17T00:57:45.510Z,333.14
2022-11-17T00:58:18.743Z,337.75
2022-11-17T00:58:52.392Z,362.17
2022-11-17T00:59:25.656Z,418.50
2022-11-17T00:59:58.629Z,403.24
2022-11-17T01:00:31.906Z,416.08
2022-11-17T01:01:05.530Z,392.62
2022-11-17T01:01:39.106Z,451.23
2022-11-17T01:02:12.059Z,443.08
2022-11-17T01:02:45.141Z,472.25
2022-11-17T01:03:18.410Z,58.82
2022-11-17T01:03:51.694Z,52.70
2022-11-17T01:04:24.871Z,52.38
2022-11-17T01:04:57.744Z,52.64
2022-11-17T01:05:33.188Z,52.22
2022-11-17T01:06:11.776Z,53.24
2022-11-17T01:06:46.082Z,51.94
2022-11-17T01:07:19.361Z,47.44
2022-11-17T01:07:53.368Z,47.32
2022-11-17T01:08:26.532Z,49.76
2022-11-17T01:09:03.296Z,49.74
2022-11-17T01:09:36.574Z,46.76
2022-11-17T01:10:10.593Z,48.54
2022-11-17T01:10:43.852Z,52.34
2022-11-17T01:11:19.180Z,52.60
2022-11-17T01:11:53.079Z,47.26
2022-11-17T01:12:26.459Z,47.80
2022-11-17T01:12:59.738Z,46.88
2022-11-17T01:13:33.201Z,47.10
2022-11-17T01:14:06.707Z,43.56
2022-11-17T01:14:40.094Z,44.60
2022-11-17T01:15:13.271Z,42.80
2022-11-17T01:15:46.346Z,43.54
2022-11-17T01:16:20.041Z,39.04
2022-11-17T01:16:53.312Z,45.50
2022-11-17T01:17:26.592Z,43.30
2022-11-17T01:17:59.774Z,49.20
2022-11-17T01:18:32.954Z,43.44
2022-11-17T01:19:06.540Z,49.82
2022-11-17T01:19:39.819Z,54.26
2022-11-17T01:20:13.095Z,51.76
2022-11-17T01:20:46.274Z,55.04
2022-11-17T01:21:21.707Z,49.36
2022-11-17T01:21:54.888Z,46.10
2022-11-17T01:22:28.264Z,45.36
2022-11-17T01:23:01.853Z,46.98
2022-11-17T01:23:35.530Z,45.96
2022-11-17T01:24:11.493Z,51.64
2022-11-17T01:24:45.075Z,42.32
2022-11-17T01:25:18.355Z,41.10
2022-11-17T01:25:51.529Z,38.40
2022-11-17T01:26:26.248Z,38.60
2022-11-17T01:26:59.221Z,34.24
2022-11-17T01:27:32.497Z,35.94
2022-11-17T01:28:05.573Z,32.66
2022-11-17T01:28:39.367Z,32.16
2022-11-17T01:29:13.570Z,36.98
2022-11-17T01:29:47.052Z,40.20
2022-11-17T01:30:20.334Z,33.56
2022-11-17T01:30:59.756Z,36.72
2022-11-17T01:31:35.190Z,34.90
2022-11-17T01:32:08.364Z,32.72
2022-11-17T01:32:41.546Z,33.68
2022-11-17T01:33:15.265Z,37.94
2022-11-17T01:33:49.131Z,33.82
2022-11-17T01:34:22.104Z,36.70
2022-11-17T01:34:55.382Z,38.82
2022-11-17T01:35:28.459Z,53.98
2022-11-17T01:36:05.628Z,53.90
2022-11-17T01:37:01.957Z,70.98
2022-11-17T01:37:35.128Z,52.74
2022-11-17T01:38:08.295Z,60.06
2022-11-17T01:38:41.996Z,52.26
2022-11-17T01:39:15.173Z,51.88
2022-11-17T01:39:48.860Z,51.76
2022-11-17T01:40:22.042Z,46.90
2022-11-17T01:40:55.326Z,37.88
2022-11-17T01:41:28.904Z,36.18
2022-11-17T01:42:05.980Z,38.98
2022-11-17T01:42:39.378Z,48.48
2022-11-17T01:43:12.635Z,45.52
2022-11-17T01:43:52.578Z,48.68
2022-11-17T01:45:03.064Z,41.14
2022-11-17T01:45:37.639Z,91.54
2022-11-17T01:46:16.446Z,71.46
2022-11-17T01:46:50.135Z,34.48
2022-11-17T01:47:33.347Z,35.26
2022-11-17T01:48:08.268Z,36.64
2022-11-17T01:48:42.983Z,30.78
2022-11-17T01:49:22.100Z,41.38
2022-11-17T01:49:57.324Z,34.50
2022-11-17T01:50:40.842Z,33.15
2022-11-17T01:51:15.049Z,32.36
2022-11-17T01:51:51.296Z,30.06
2022-11-17T01:52:25.298Z,33.22
2022-11-17T01:53:00.314Z,31.14
2022-11-17T01:53:36.028Z,27.74
2022-11-17T01:54:11.177Z,28.28
2022-11-17T01:54:47.279Z,32.00
2022-11-17T01:55:22.342Z,26.18
2022-11-17T01:55:58.082Z,32.36
2022-11-17T01:56:34.227Z,45.63
2022-11-17T01:57:10.584Z,46.42
2022-11-17T01:57:48.002Z,49.97
2022-11-17T01:58:26.877Z,35.90
2022-11-17T01:59:06.195Z,38.52
2022-11-17T01:59:41.931Z,37.92
2022-11-17T02:00:15.412Z,29.86
2022-11-17T02:00:48.733Z,31.77
2022-11-17T02:01:22.430Z,28.70
2022-11-17T02:01:56.221Z,35.72
2022-11-17T02:02:29.864Z,30.20
2022-11-17T02:03:03.147Z,159.50
2022-11-17T02:03:37.405Z,33.42
2022-11-17T02:04:11.533Z,32.72
2022-11-17T02:04:50.256Z,41.67
2022-11-17T02:05:31.014Z,31.60
2022-11-17T02:06:07.572Z,34.28
2022-11-17T02:06:41.564Z,148.75
2022-11-17T02:07:17.772Z,49.94
2022-11-17T02:07:52.839Z,42.70
2022-11-17T02:08:28.677Z,198.25
2022-11-17T02:09:03.291Z,30.02
2022-11-17T02:09:38.836Z,34.34
2022-11-17T02:10:12.104Z,54.72
2022-11-17T02:10:51.328Z,39.22
2022-11-17T02:11:25.828Z,36.22
2022-11-17T02:11:59.725Z,65.12
2022-11-17T02:12:34.233Z,40.60
2022-11-17T02:13:08.130Z,295.27
2022-11-17T02:13:41.918Z,31.96
2022-11-17T02:14:15.509Z,32.12
2022-11-17T02:14:49.913Z,32.00
2022-11-17T02:15:23.397Z,32.62
2022-11-17T02:15:56.680Z,33.60
2022-11-17T02:16:29.856Z,36.00
2022-11-17T02:17:11.449Z,34.10
2022-11-17T02:17:46.453Z,34.30
2022-11-17T02:18:19.941Z,33.58
2022-11-17T02:18:53.118Z,34.64
2022-11-17T02:19:27.318Z,159.02
2022-11-17T02:20:05.923Z,163.02
2022-11-17T02:20:54.052Z,29.14
2022-11-17T02:21:27.430Z,30.70
2022-11-17T02:22:18.019Z,31.92
2022-11-17T02:23:16.490Z,30.74
2022-11-17T02:23:49.565Z,30.22
2022-11-17T02:24:41.382Z,30.80
2022-11-17T02:25:43.682Z,29.92
2022-11-17T02:26:35.658Z,29.06
2022-11-17T02:27:27.275Z,29.74
2022-11-17T02:28:04.641Z,31.08
2022-11-17T02:28:39.868Z,28.38
2022-11-17T02:29:22.158Z,28.98
2022-11-17T02:30:02.200Z,32.02
2022-11-17T02:30:50.018Z,31.16
2022-11-17T02:31:26.477Z,32.00
2022-11-17T02:31:59.858Z,29.06
2022-11-17T02:32:38.975Z,33.08
2022-11-17T02:33:16.452Z,289.58
2022-11-17T02:34:01.204Z,36.50
2022-11-17T02:34:38.377Z,28.20
2022-11-17T02:35:27.019Z,29.68
2022-11-17T02:36:05.417Z,32.04
2022-11-17T02:36:41.665Z,33.30
2022-11-17T02:37:21.296Z,29.08
2022-11-17T02:38:01.746Z,28.38
2022-11-17T02:38:41.471Z,27.80
2022-11-17T02:39:26.428Z,28.45
2022-11-17T02:40:05.545Z,30.18
2022-11-17T02:40:42.201Z,30.77
2022-11-17T02:41:22.858Z,30.64
2022-11-17T02:41:59.001Z,28.34
2022-11-17T02:42:50.508Z,31.08
2022-11-17T02:43:45.296Z,30.08
2022-11-17T02:44:21.338Z,29.48
2022-11-17T02:44:59.128Z,32.02
2022-11-17T02:45:40.803Z,31.08
2022-11-17T02:46:21.455Z,31.96
2022-11-17T02:46:56.885Z,36.60
2022-11-17T02:47:31.094Z,32.64
2022-11-17T02:48:08.670Z,33.42
2022-11-17T02:48:55.363Z,31.92
2022-11-17T02:49:32.123Z,32.68
2022-11-17T02:50:08.680Z,35.90
2022-11-17T02:50:44.117Z,36.30
2022-11-17T02:51:20.160Z,36.86
2022-11-17T02:51:58.353Z,35.44
2022-11-17T02:52:31.838Z,33.94
2022-11-17T02:53:05.424Z,293.98
2022-11-17T02:53:39.267Z,148.20
2022-11-17T02:54:13.514Z,33.90
2022-11-17T02:54:46.702Z,296.60
2022-11-17T02:55:19.878Z,33.48
2022-11-17T02:55:53.875Z,36.12
2022-11-17T02:56:27.153Z,34.56
2022-11-17T02:57:00.332Z,31.22
2022-11-17T02:57:35.457Z,32.58
2022-11-17T02:58:14.473Z,34.38
2022-11-17T02:58:48.980Z,31.75
2022-11-17T02:59:28.401Z,30.80
2022-11-17T03:00:07.217Z,30.15
2022-11-17T03:00:46.026Z,34.30
2022-11-17T03:01:34.546Z,31.88
2022-11-17T03:02:14.500Z,37.20
2022-11-17T03:02:47.676Z,32.10
2022-11-17T03:03:33.138Z,32.22
2022-11-17T03:04:17.380Z,31.98
2022-11-17T03:04:53.525Z,29.40
2022-11-17T03:05:32.742Z,33.30
2022-11-17T03:06:13.910Z,31.77
2022-11-17T03:07:06.618Z,35.14
2022-11-17T03:07:46.280Z,31.30
2022-11-17T03:08:33.116Z,29.42
2022-11-17T03:09:15.674Z,31.58
2022-11-17T03:10:06.974Z,38.54
2022-11-17T03:10:43.224Z,38.78
2022-11-17T03:11:16.402Z,33.60
2022-11-17T03:11:51.318Z,35.62
2022-11-17T03:12:34.632Z,37.98
2022-11-17T03:13:16.414Z,39.46
2022-11-17T03:13:49.692Z,38.52
2022-11-17T03:14:34.371Z,42.40
2022-11-17T03:15:25.573Z,41.10
2022-11-17T03:16:14.588Z,37.72
2022-11-17T03:17:05.385Z,33.83
2022-11-17T03:17:38.867Z,38.74
2022-11-17T03:18:19.521Z,40.72
2022-11-17T03:19:11.229Z,39.16
2022-11-17T03:20:07.144Z,34.94
2022-11-17T03:20:40.932Z,39.58
2022-11-17T03:21:20.771Z,42.22
2022-11-17T03:22:13.607Z,46.55
2022-11-17T03:23:02.396Z,33.70
2022-11-17T03:23:35.837Z,37.60
2022-11-17T03:24:16.489Z,40.68
2022-11-17T03:24:49.769Z,38.26
2022-11-17T03:25:23.961Z,42.36
2022-11-17T03:25:59.105Z,38.72
2022-11-17T03:26:35.445Z,40.84
2022-11-17T03:27:11.491Z,39.84
2022-11-17T03:27:50.503Z,43.94
2022-11-17T03:28:25.690Z,43.82
2022-11-17T03:28:59.418Z,41.36
2022-11-17T03:29:34.135Z,38.42
2022-11-17T03:30:08.953Z,43.52
2022-11-17T03:30:43.357Z,44.54
2022-11-17T03:31:17.354Z,39.08
2022-11-17T03:31:52.581Z,42.54
2022-11-17T03:32:26.996Z,44.04
2022-11-17T03:33:05.795Z,45.20
2022-11-17T03:33:39.691Z,39.40
2022-11-17T03:34:15.737Z,42.84
2022-11-17T03:34:51.369Z,44.54
2022-11-17T03:35:30.178Z,42.28
2022-11-17T03:36:06.021Z,41.86
2022-11-17T03:36:42.784Z,46.08
2022-11-17T03:37:19.239Z,42.04
2022-11-17T03:37:54.670Z,38.90
2022-11-17T03:38:29.994Z,38.90
2022-11-17T03:39:24.474Z,45.44
2022-11-17T03:40:04.009Z,41.76
2022-11-17T03:40:39.431Z,42.05
2022-11-17T03:41:14.858Z,40.88
2022-11-17T03:41:50.493Z,40.48
2022-11-17T03:42:25.212Z,41.58
2022-11-17T03:43:00.638Z,42.66
2022-11-17T03:43:34.517Z,42.72
2022-11-17T03:44:08.427Z,42.88
2022-11-17T03:44:43.141Z,39.10
2022-11-17T03:45:21.136Z,42.56
2022-11-17T03:45:56.053Z,44.74
2022-11-17T03:46:30.150Z,40.46
2022-11-17T03:48:08.046Z,47.66
2022-11-17T03:48:59.346Z,49.54
2022-11-17T03:49:32.423Z,54.24
2022-11-17T03:50:05.499Z,51.68
2022-11-17T03:50:41.552Z,51.00
2022-11-17T03:51:23.322Z,49.88
2022-11-17T03:51:56.710Z,48.86
2022-11-17T03:52:30.503Z,53.00
2022-11-17T03:53:04.704Z,51.08
2022-11-17T03:53:38.525Z,46.78
2022-11-17T03:54:12.487Z,46.84
2022-11-17T03:54:45.666Z,48.96
2022-11-17T03:55:18.542Z,48.02
2022-11-17T03:55:57.349Z,44.62
2022-11-17T03:56:30.524Z,44.84
2022-11-17T03:57:10.050Z,43.66
2022-11-17T03:58:00.328Z,41.22
2022-11-17T03:58:35.660Z,39.30
2022-11-17T03:59:13.959Z,45.12
2022-11-17T03:59:55.635Z,42.46
2022-11-17T04:00:28.712Z,36.78
2022-11-17T04:01:03.836Z,39.34
2022-11-17T04:01:37.261Z,35.06
2022-11-17T04:02:20.432Z,36.54
2022-11-17T04:02:59.037Z,37.52
2022-11-17T04:03:34.813Z,34.64
2022-11-17T04:04:08.256Z,34.06
2022-11-17T04:04:59.866Z,35.30
2022-11-17T04:05:33.042Z,33.98
2022-11-17T04:06:06.426Z,35.50
2022-11-17T04:06:39.606Z,37.20
2022-11-17T04:07:12.615Z,36.86
2022-11-17T04:07:47.292Z,37.60
2022-11-17T04:08:20.574Z,36.58
2022-11-17T04:08:53.964Z,34.52
2022-11-17T04:09:27.129Z,39.00
2022-11-17T04:10:00.312Z,33.20
2022-11-17T04:10:53.562Z,37.44
2022-11-17T04:11:45.173Z,36.02
2022-11-17T04:12:37.088Z,33.82
2022-11-17T04:13:29.309Z,41.14
2022-11-17T04:14:21.122Z,47.86
2022-11-17T04:15:13.043Z,40.36
2022-11-17T04:15:59.558Z,35.38
2022-11-17T04:16:32.711Z,45.72
2022-11-17T04:17:06.093Z,38.04
2022-11-17T04:17:39.265Z,37.42
2022-11-17T04:18:12.609Z,33.48
2022-11-17T04:18:45.929Z,33.92
2022-11-17T04:19:19.213Z,34.18
2022-11-17T04:19:52.394Z,43.76
2022-11-17T04:20:25.975Z,31.50
2022-11-17T04:20:59.053Z,33.28
2022-11-17T04:21:31.823Z,36.88
2022-11-17T04:22:05.105Z,170.68
2022-11-17T04:22:38.173Z,34.94
2022-11-17T04:23:14.534Z,37.02
2022-11-17T04:23:47.707Z,37.22
2022-11-17T04:24:20.680Z,33.66
2022-11-17T04:24:53.961Z,34.70
2022-11-17T04:25:46.900Z,31.86
2022-11-17T04:26:38.620Z,31.72
2022-11-17T04:27:30.325Z,34.68
2022-11-17T04:28:22.140Z,33.00
2022-11-17T04:28:56.139Z,30.84
2022-11-17T04:29:30.647Z,29.92
2022-11-17T04:30:04.439Z,31.32
2022-11-17T04:30:37.822Z,27.32
2022-11-17T04:31:29.739Z,31.56
2022-11-17T04:32:03.117Z,26.38
2022-11-17T04:32:36.398Z,20.82
2022-11-17T04:33:09.677Z,23.98
2022-11-17T04:33:44.289Z,25.88
2022-11-17T04:34:17.569Z,23.98
2022-11-17T04:34:50.856Z,23.68
2022-11-17T04:35:24.130Z,20.94
2022-11-17T04:35:57.717Z,24.20
2022-11-17T04:36:46.875Z,24.42
2022-11-17T04:37:20.152Z,18.58
2022-11-17T04:37:53.225Z,17.06
2022-11-17T04:38:26.455Z,16.04
2022-11-17T04:39:00.301Z,19.16
2022-11-17T04:39:34.601Z,19.14
2022-11-17T04:40:08.191Z,16.30
2022-11-17T04:41:01.339Z,17.02
2022-11-17T04:41:53.460Z,16.40
2022-11-17T04:42:26.941Z,14.48
2022-11-17T04:43:00.119Z,13.66
2022-11-17T04:43:33.645Z,13.28
2022-11-17T04:44:07.812Z,12.42
2022-11-17T04:44:41.089Z,12.80
2022-11-17T04:45:14.263Z,15.24
2022-11-17T04:45:47.750Z,16.34
2022-11-17T04:46:21.745Z,14.54
2022-11-17T04:46:55.850Z,17.66
2022-11-17T04:47:29.126Z,15.98
2022-11-17T04:48:02.518Z,11.74
2022-11-17T04:48:35.484Z,9.72
2022-11-17T04:49:08.862Z,12.02
2022-11-17T04:49:41.840Z,12.80
2022-11-17T04:50:14.810Z,14.08
2022-11-17T04:50:47.886Z,11.70
2022-11-17T04:51:21.369Z,13.66
2022-11-17T04:51:54.755Z,10.32
2022-11-17T04:52:29.927Z,15.92
2022-11-17T04:53:03.453Z,11.28
2022-11-17T04:53:36.931Z,14.88
2022-11-17T04:54:12.074Z,11.28
2022-11-17T04:54:45.674Z,12.90
2022-11-17T04:55:18.835Z,10.04
2022-11-17T04:55:52.014Z,9.08
2022-11-17T04:56:25.603Z,10.00
2022-11-17T04:56:58.682Z,12.46
2022-11-17T04:57:32.058Z,11.96
2022-11-17T04:58:05.548Z,12.18
2022-11-17T04:58:38.825Z,14.86
2022-11-17T04:59:12.104Z,12.46
2022-11-17T04:59:45.286Z,11.40
2022-11-17T05:00:18.877Z,10.56
2022-11-17T05:00:51.950Z,10.92
2022-11-17T05:01:26.254Z,13.48
2022-11-17T05:02:04.335Z,10.28
2022-11-17T05:02:38.992Z,12.02
2022-11-17T05:03:12.337Z,11.84
2022-11-17T05:03:46.335Z,10.98
2022-11-17T05:04:39.274Z,11.82
2022-11-17T05:05:12.252Z,11.42
2022-11-17T05:05:49.012Z,16.44
2022-11-17T05:06:32.839Z,12.94
2022-11-17T05:07:06.483Z,13.58
2022-11-17T05:07:39.860Z,13.64
2022-11-17T05:08:13.197Z,13.48
2022-11-17T05:08:46.887Z,23.54
2022-11-17T05:09:20.363Z,14.22
2022-11-17T05:09:53.848Z,14.78
2022-11-17T05:10:44.989Z,15.10
2022-11-17T05:11:36.770Z,15.78
2022-11-17T05:12:28.476Z,13.24
2022-11-17T05:13:19.576Z,12.90
2022-11-17T05:13:53.261Z,13.40
2022-11-17T05:14:26.854Z,11.90
2022-11-17T05:14:59.930Z,12.32
2022-11-17T05:15:56.148Z,11.40
2022-11-17T05:16:47.657Z,11.36
2022-11-17T05:17:20.935Z,11.22
2022-11-17T05:17:54.315Z,11.28
2022-11-17T05:18:27.498Z,11.74
2022-11-17T05:19:00.976Z,11.46
2022-11-17T05:19:35.525Z,13.30
2022-11-17T05:20:09.175Z,12.82
2022-11-17T05:20:42.460Z,13.44
2022-11-17T05:21:15.636Z,11.52
2022-11-17T05:21:48.713Z,13.08
2022-11-17T05:22:42.884Z,12.60
2022-11-17T05:23:34.926Z,14.08
2022-11-17T05:24:08.589Z,13.85
2022-11-17T05:24:41.872Z,13.78
2022-11-17T05:25:15.146Z,15.64
2022-11-17T05:25:48.432Z,12.06
2022-11-17T05:26:22.732Z,14.52
2022-11-17T05:26:56.219Z,15.28
2022-11-17T05:27:29.702Z,13.12
2022-11-17T05:28:02.984Z,12.08
2022-11-17T05:28:35.960Z,14.60
2022-11-17T05:29:09.956Z,13.26
2022-11-17T05:29:43.134Z,15.74
2022-11-17T05:30:16.211Z,14.50
2022-11-17T05:30:49.487Z,14.16
2022-11-17T05:31:23.093Z,16.72
2022-11-17T05:31:56.456Z,18.14
2022-11-17T05:32:29.532Z,17.42
2022-11-17T05:33:02.711Z,19.78
2022-11-17T05:33:37.946Z,18.84
2022-11-17T05:34:12.957Z,21.33
2022-11-17T05:34:46.448Z,19.58
2022-11-17T05:35:19.416Z,22.08
2022-11-17T05:35:52.595Z,21.90
2022-11-17T05:36:26.490Z,18.14
2022-11-17T05:36:59.566Z,19.08
2022-11-17T05:37:32.748Z,19.34
2022-11-17T05:38:05.917Z,20.10
2022-11-17T05:38:39.201Z,21.32
2022-11-17T05:39:12.681Z,19.90
2022-11-17T05:39:45.765Z,18.74
2022-11-17T05:40:19.038Z,19.28
2022-11-17T05:40:52.215Z,19.74
2022-11-17T05:41:25.913Z,19.00
2022-11-17T05:41:58.984Z,23.14
2022-11-17T05:42:32.363Z,18.84
2022-11-17T05:43:05.437Z,18.80
2022-11-17T05:43:38.821Z,21.86
2022-11-17T05:44:12.104Z,20.70
2022-11-17T05:44:45.180Z,22.02
2022-11-17T05:45:18.257Z,39.18
2022-11-17T05:45:51.331Z,30.40
2022-11-17T05:46:24.815Z,32.10
2022-11-17T05:46:58.297Z,25.10
2022-11-17T05:47:31.375Z,21.38
2022-11-17T05:48:04.660Z,25.62
2022-11-17T05:48:38.036Z,21.58
2022-11-17T05:49:10.905Z,23.16
2022-11-17T05:49:44.289Z,27.06
2022-11-17T05:50:17.570Z,27.00
2022-11-17T05:50:54.335Z,26.46
2022-11-17T05:51:28.429Z,26.42
2022-11-17T05:52:01.816Z,25.62
2022-11-17T05:52:34.997Z,30.34
2022-11-17T05:53:08.173Z,30.64
2022-11-17T05:53:41.451Z,25.96
2022-11-17T05:54:14.608Z,26.12
2022-11-17T05:54:47.907Z,23.00
2022-11-17T05:55:21.090Z,25.66
2022-11-17T05:56:06.553Z,26.06
2022-11-17T05:56:41.571Z,26.48
2022-11-17T05:57:17.820Z,27.06
2022-11-17T05:57:52.025Z,25.66
2022-11-17T05:58:27.763Z,27.96
2022-11-17T05:59:09.335Z,29.14
2022-11-17T05:59:46.610Z,23.70
2022-11-17T06:00:19.687Z,25.58
2022-11-17T06:00:54.402Z,23.00
2022-11-17T06:01:28.500Z,25.38
2022-11-17T06:02:05.156Z,26.18
2022-11-17T06:02:40.282Z,27.58
2022-11-17T06:03:16.840Z,31.44
2022-11-17T06:03:52.842Z,26.70
2022-11-17T06:04:26.199Z,28.90
2022-11-17T06:04:59.447Z,27.90
2022-11-17T06:05:33.032Z,24.92
2022-11-17T06:06:06.312Z,27.36
2022-11-17T06:06:39.694Z,27.50
2022-11-17T06:07:13.221Z,27.08
2022-11-17T06:07:46.565Z,28.86
2022-11-17T06:08:20.146Z,40.94
2022-11-17T06:08:53.432Z,31.36
2022-11-17T06:09:27.731Z,30.62
2022-11-17T06:10:01.117Z,32.84
2022-11-17T06:10:34.911Z,31.70
2022-11-17T06:11:08.292Z,32.24
2022-11-17T06:11:41.364Z,34.70
2022-11-17T06:12:15.899Z,28.20
2022-11-17T06:12:49.357Z,26.82
2022-11-17T06:13:29.607Z,22.08
2022-11-17T06:14:03.188Z,21.92
2022-11-17T06:14:38.108Z,22.12
2022-11-17T06:15:11.386Z,20.90
2022-11-17T06:15:44.466Z,18.34
2022-11-17T06:16:19.104Z,16.08
2022-11-17T06:16:56.964Z,17.72
2022-11-17T06:17:36.082Z,15.10
2022-11-17T06:18:15.347Z,17.56
2022-11-17T06:18:51.036Z,14.70
2022-11-17T06:19:28.003Z,17.02
2022-11-17T06:20:07.635Z,17.56
2022-11-17T06:20:43.576Z,15.73
2022-11-17T06:21:17.168Z,13.36
2022-11-17T06:22:11.213Z,13.10
2022-11-17T06:22:48.280Z,13.98
2022-11-17T06:23:23.524Z,13.88
2022-11-17T06:23:56.710Z,12.20
2022-11-17T06:24:29.783Z,11.42
2022-11-17T06:25:03.884Z,11.72
2022-11-17T06:25:37.981Z,15.46
2022-11-17T06:26:12.083Z,16.16
2022-11-17T06:26:45.871Z,11.70
2022-11-17T06:27:19.150Z,14.30
2022-11-17T06:27:52.841Z,13.45
2022-11-17T06:28:28.784Z,13.75
2022-11-17T06:29:03.094Z,12.48
2022-11-17T06:29:40.940Z,16.30
2022-11-17T06:30:17.635Z,13.20
2022-11-17T06:30:50.917Z,11.15
2022-11-17T06:31:25.835Z,16.65
2022-11-17T06:31:59.827Z,14.27
2022-11-17T06:32:37.925Z,10.60
2022-11-17T06:33:13.044Z,11.82
2022-11-17T06:33:46.531Z,17.42
2022-11-17T06:34:19.607Z,10.70
2022-11-17T06:34:55.999Z,17.70
2022-11-17T06:35:33.844Z,20.46
2022-11-17T06:36:07.958Z,11.70
2022-11-17T06:36:41.231Z,14.04
2022-11-17T06:37:14.303Z,9.22
2022-11-17T06:37:47.477Z,15.40
2022-11-17T06:38:20.863Z,11.48
2022-11-17T06:38:54.289Z,10.88
2022-11-17T06:39:27.733Z,14.92
2022-11-17T06:40:01.014Z,12.02
2022-11-17T06:40:34.089Z,14.40
2022-11-17T06:41:11.714Z,28.80
2022-11-17T06:41:45.461Z,31.66
2022-11-17T06:42:18.640Z,19.10
2022-11-17T06:43:04.294Z,13.10
2022-11-17T06:43:37.912Z,20.10
2022-11-17T06:44:11.378Z,20.44
2022-11-17T06:44:44.864Z,43.64
2022-11-17T06:45:18.046Z,28.58
2022-11-17T06:45:51.424Z,60.56
2022-11-17T06:46:24.907Z,99.44
2022-11-17T06:46:58.192Z,95.70
2022-11-17T06:47:31.472Z,319.34
2022-11-17T06:48:05.468Z,19.34
2022-11-17T06:48:38.903Z,15.60
2022-11-17T06:49:12.435Z,16.38
2022-11-17T06:49:45.615Z,17.52
2022-11-17T06:50:18.793Z,14.16
2022-11-17T06:50:51.970Z,14.62
2022-11-17T06:51:25.509Z,14.74
2022-11-17T06:51:58.841Z,17.28
2022-11-17T06:52:32.321Z,17.18
2022-11-17T06:53:06.830Z,16.38
2022-11-17T06:53:40.116Z,19.22
2022-11-17T06:54:15.033Z,15.90
2022-11-17T06:54:48.412Z,13.38
2022-11-17T06:55:21.694Z,17.18
2022-11-17T06:56:10.234Z,16.28
2022-11-17T06:56:44.229Z,14.63
2022-11-17T06:57:17.609Z,18.74
2022-11-17T06:57:53.549Z,32.20
2022-11-17T06:58:27.041Z,26.70
2022-11-17T06:59:00.419Z,28.52
2022-11-17T06:59:34.108Z,30.52
2022-11-17T07:00:07.702Z,26.98
2022-11-17T07:00:41.022Z,23.40
2022-11-17T07:01:15.529Z,26.82
2022-11-17T07:01:48.778Z,29.02
2022-11-17T07:02:21.847Z,26.30
2022-11-17T07:02:59.529Z,23.30
2022-11-17T07:03:34.034Z,20.94
2022-11-17T07:04:08.241Z,22.16
2022-11-17T07:04:41.418Z,24.86
2022-11-17T07:05:14.599Z,23.20
2022-11-17T07:05:47.875Z,20.18
2022-11-17T07:06:21.258Z,19.48
2022-11-17T07:06:54.690Z,16.84
2022-11-17T07:07:27.971Z,20.48
2022-11-17T07:08:02.023Z,17.90
2022-11-17T07:08:35.684Z,17.88
2022-11-17T07:09:09.292Z,19.12
2022-11-17T07:09:42.371Z,20.34
2022-11-17T07:10:15.754Z,17.14
2022-11-17T07:10:55.076Z,18.42
2022-11-17T07:11:28.457Z,16.70
2022-11-17T07:12:01.639Z,16.60
2022-11-17T07:12:35.120Z,18.42
2022-11-17T07:13:09.223Z,15.06
2022-11-17T07:13:42.805Z,14.25
2022-11-17T07:14:16.291Z,15.62
2022-11-17T07:14:49.569Z,16.74
2022-11-17T07:15:24.182Z,15.36
2022-11-17T07:16:02.378Z,16.54
2022-11-17T07:16:35.455Z,15.00
2022-11-17T07:17:08.937Z,14.08
2022-11-17T07:17:42.120Z,15.06
2022-11-17T07:18:15.499Z,16.00
2022-11-17T07:18:48.777Z,14.30
2022-11-17T07:19:22.061Z,16.98
2022-11-17T07:19:55.645Z,15.98
2022-11-17T07:20:28.780Z,13.32
2022-11-17T07:21:05.793Z,13.28
2022-11-17T07:21:39.275Z,12.66
2022-11-17T07:22:12.252Z,13.26
2022-11-17T07:22:45.733Z,15.14
2022-11-17T07:23:18.925Z,15.18
2022-11-17T07:23:52.191Z,11.72
2022-11-17T07:24:25.786Z,13.32
2022-11-17T07:24:59.265Z,13.36
2022-11-17T07:25:32.441Z,12.40
2022-11-17T07:26:06.232Z,12.07
2022-11-17T07:26:39.307Z,17.00
2022-11-17T07:27:12.587Z,14.92
2022-11-17T07:27:45.970Z,15.94
2022-11-17T07:28:19.252Z,14.80
2022-11-17T07:28:52.432Z,14.24
2022-11-17T07:29:26.221Z,18.18
2022-11-17T07:29:59.519Z,13.60
2022-11-17T07:30:32.684Z,13.44
2022-11-17T07:31:06.681Z,17.32
2022-11-17T07:31:39.756Z,12.14
2022-11-17T07:32:14.265Z,15.86
2022-11-17T07:32:53.396Z,15.46
2022-11-17T07:33:27.789Z,11.96
2022-11-17T07:34:00.964Z,10.94
2022-11-17T07:34:34.050Z,12.58
2022-11-17T07:35:07.320Z,14.44
2022-11-17T07:35:40.494Z,16.86
2022-11-17T07:36:17.158Z,14.80
2022-11-17T07:36:50.540Z,16.78
2022-11-17T07:37:23.922Z,14.02
2022-11-17T07:38:01.910Z,13.24
2022-11-17T07:38:35.975Z,12.08
2022-11-17T07:39:09.597Z,12.02
2022-11-17T07:39:42.776Z,13.74
2022-11-17T07:40:16.571Z,16.50
2022-11-17T07:40:49.748Z,17.82
2022-11-17T07:41:22.928Z,17.18
2022-11-17T07:41:55.996Z,19.14
2022-11-17T07:42:29.075Z,19.00
2022-11-17T07:43:04.094Z,17.82
2022-11-17T07:43:39.525Z,13.54
2022-11-17T07:44:12.807Z,14.66
2022-11-17T07:44:45.682Z,19.22
2022-11-17T07:45:18.755Z,18.40
2022-11-17T07:45:51.830Z,15.10
2022-11-17T07:46:25.107Z,13.28